Time;durP1;ratioP1;P1;durP2;ratioP2;P2;SDS_P1;SDS_P2;PMS_P1;PMS_P2;Temp;Humidity;BMP_temperature;BMP_pressure;BME280_temperature;BME280_humidity;BME280_pressure;Samples;Min_cycle;Max_cycle;Signal;HPM_P1;HPM_P2
2022/01/05 00:01:28;;;;;;;14.50;9.67;;;;;;;;;;5073964;28;20414;-52
2022/01/05 00:03:54;;;;;;;13.57;9.10;;;;;;;;;;5075130;28;20419;-52
2022/01/05 00:06:20;;;;;;;10.97;9.07;;;;;;;;;;5075198;28;20434;-52
2022/01/05 00:08:46;;;;;;;13.27;9.10;;;;;;;;;;5075186;28;20449;-50
2022/01/05 00:11:12;;;;;;;10.00;8.50;;;;;;;;;;5075018;28;20403;-52
2022/01/05 00:13:38;;;;;;;14.37;9.00;;;;;;;;;;5075014;28;20772;-51
2022/01/05 00:16:04;;;;;;;11.37;8.57;;;;;;;;;;5074800;28;20450;-53
2022/01/05 00:18:34;;;;;;;9.57;8.17;;;;;;;;;;5075269;28;20419;-52
2022/01/05 00:21:01;;;;;;;10.20;8.20;;;;;;;;;;5074764;28;20455;-54
2022/01/05 00:23:27;;;;;;;18.27;9.23;;;;;;;;;;5074858;28;20798;-51
2022/01/05 00:25:53;;;;;;;10.87;8.23;;;;;;;;;;5074874;28;20460;-52
2022/01/05 00:28:19;;;;;;;11.13;9.00;;;;;;;;;;5074855;28;20490;-51
2022/01/05 00:30:45;;;;;;;9.10;8.20;;;;;;;;;;5073566;28;20426;-52
2022/01/05 00:33:12;;;;;;;15.40;7.93;;;;;;;;;;5074810;28;20411;-53
2022/01/05 00:35:38;;;;;;;9.17;8.00;;;;;;;;;;5074515;28;20419;-52
2022/01/05 00:38:04;;;;;;;8.83;7.50;;;;;;;;;;5074676;28;20481;-53
2022/01/05 00:40:30;;;;;;;8.70;7.80;;;;;;;;;;5074583;28;20410;-52
2022/01/05 00:42:56;;;;;;;9.10;8.20;;;;;;;;;;5074983;28;20414;-51
2022/01/05 00:45:22;;;;;;;8.50;7.70;;;;;;;;;;5073954;28;20441;-52
2022/01/05 00:47:48;;;;;;;7.60;6.90;;;;;;;;;;5074598;28;20411;-53
2022/01/05 00:50:14;;;;;;;8.13;6.73;;;;;;;;;;5074358;28;20585;-51
2022/01/05 00:52:40;;;;;;;11.90;6.90;;;;;;;;;;5074316;28;20899;-52
2022/01/05 00:55:06;;;;;;;8.63;7.60;;;;;;;;;;5074242;28;20411;-53
2022/01/05 00:57:32;;;;;;;7.80;7.00;;;;;;;;;;5074076;28;20482;-50
2022/01/05 00:59:58;;;;;;;8.23;6.87;;;;;;;;;;5074270;28;20410;-52
2022/01/05 01:02:24;;;;;;;9.73;7.00;;;;;;;;;;5074041;28;20407;-52
2022/01/05 01:04:50;;;;;;;7.40;6.57;;;;;;;;;;5074040;28;20403;-51
2022/01/05 01:07:16;;;;;;;8.60;6.90;;;;;;;;;;5074154;28;20418;-53
2022/01/05 01:09:42;;;;;;;7.77;6.10;;;;;;;;;;5073900;28;20956;-51
2022/01/05 01:12:09;;;;;;;8.07;6.43;;;;;;;;;;5072594;28;20414;-51
2022/01/05 01:14:35;;;;;;;7.10;6.50;;;;;;;;;;5072602;28;20476;-53
2022/01/05 01:17:01;;;;;;;6.67;5.90;;;;;;;;;;5073881;28;20470;-54
2022/01/05 01:19:26;;;;;;;6.83;6.20;;;;;;;;;;5073724;28;20403;-53
2022/01/05 01:21:53;;;;;;;6.40;5.80;;;;;;;;;;5072374;28;20478;-55
2022/01/05 01:24:19;;;;;;;5.90;5.40;;;;;;;;;;5073962;28;20399;-52
2022/01/05 01:26:45;;;;;;;6.27;5.77;;;;;;;;;;5073725;28;20414;-52
2022/01/05 01:29:11;;;;;;;6.70;6.00;;;;;;;;;;5073597;28;20891;-54
2022/01/05 01:31:37;;;;;;;8.07;6.17;;;;;;;;;;5073490;28;20407;-58
2022/01/05 01:34:03;;;;;;;7.00;6.40;;;;;;;;;;5073601;28;20890;-59
2022/01/05 01:36:29;;;;;;;6.37;5.87;;;;;;;;;;5073488;28;20905;-60
2022/01/05 01:38:55;;;;;;;7.57;6.80;;;;;;;;;;5073674;28;20494;-54
2022/01/05 01:41:21;;;;;;;6.83;6.23;;;;;;;;;;5073397;28;20560;-52
2022/01/05 01:43:47;;;;;;;7.00;6.30;;;;;;;;;;5073714;28;20548;-52
2022/01/05 01:46:13;;;;;;;6.50;5.90;;;;;;;;;;5073193;28;20820;-53
2022/01/05 01:48:40;;;;;;;6.73;6.13;;;;;;;;;;5073341;28;20407;-52
2022/01/05 01:51:06;;;;;;;7.00;6.30;;;;;;;;;;5072185;28;20430;-51
2022/01/05 01:53:32;;;;;;;6.70;6.10;;;;;;;;;;5072268;28;20414;-56
2022/01/05 01:55:58;;;;;;;6.47;5.97;;;;;;;;;;5072666;28;20858;-52
2022/01/05 01:58:26;;;;;;;6.80;5.87;;;;;;;;;;5072948;28;20450;-51
2022/01/05 02:00:52;;;;;;;6.20;5.70;;;;;;;;;;5073248;28;20784;-50
2022/01/05 02:03:18;;;;;;;7.90;6.40;;;;;;;;;;5073477;28;20854;-51
2022/01/05 02:05:44;;;;;;;6.63;6.13;;;;;;;;;;5073117;28;20402;-52
2022/01/05 02:08:10;;;;;;;6.53;6.00;;;;;;;;;;5073032;28;20819;-51
2022/01/05 02:10:36;;;;;;;6.90;6.30;;;;;;;;;;5072943;28;20403;-51
2022/01/05 02:13:02;;;;;;;6.60;6.00;;;;;;;;;;5072929;28;20476;-53
2022/01/05 02:15:28;;;;;;;6.93;6.23;;;;;;;;;;5073223;28;20406;-52
2022/01/05 02:18:08;;;;;;;6.60;6.00;;;;;;;;;;5073055;28;20542;-54
2022/01/05 02:20:34;;;;;;;5.70;5.30;;;;;;;;;;5071373;28;20796;-54
2022/01/05 02:23:00;;;;;;;6.70;6.10;;;;;;;;;;5071675;28;20433;-54
2022/01/05 02:25:27;;;;;;;7.00;6.40;;;;;;;;;;5072718;28;20406;-57
2022/01/05 02:27:55;;;;;;;6.23;5.70;;;;;;;;;;5071403;28;20425;-55
2022/01/05 02:30:25;;;;;;;6.70;5.93;;;;;;;;;;5073136;28;20898;-53
2022/01/05 02:32:53;;;;;;;6.07;5.57;;;;;;;;;;5072825;28;20441;-56
2022/01/05 02:35:19;;;;;;;6.07;5.57;;;;;;;;;;5072925;28;20910;-54
2022/01/05 02:37:50;;;;;;;6.53;5.90;;;;;;;;;;5072634;28;20565;-56
2022/01/05 02:40:17;;;;;;;8.10;5.93;;;;;;;;;;5072871;28;20457;-53
2022/01/05 02:42:43;;;;;;;10.40;6.80;;;;;;;;;;5072713;28;20406;-55
2022/01/05 02:45:09;;;;;;;16.47;6.80;;;;;;;;;;5072617;28;20403;-57
2022/01/05 02:47:36;;;;;;;7.10;5.77;;;;;;;;;;5072740;28;20407;-54
2022/01/05 02:50:03;;;;;;;7.93;6.50;;;;;;;;;;5072695;28;20520;-55
2022/01/05 02:52:29;;;;;;;6.40;5.80;;;;;;;;;;5072662;28;20402;-54
2022/01/05 02:54:55;;;;;;;13.13;6.20;;;;;;;;;;5072598;28;20399;-58
2022/01/05 02:57:22;;;;;;;7.30;5.80;;;;;;;;;;5072396;28;20465;-51
2022/01/05 02:59:48;;;;;;;5.43;4.93;;;;;;;;;;5072950;28;20418;-55
2022/01/05 03:02:14;;;;;;;6.43;4.87;;;;;;;;;;5072383;28;20414;-51
2022/01/05 03:04:40;;;;;;;7.27;4.63;;;;;;;;;;5072395;28;20776;-50
2022/01/05 03:07:08;;;;;;;8.10;4.57;;;;;;;;;;5071122;28;20414;-51
2022/01/05 03:09:34;;;;;;;7.23;4.40;;;;;;;;;;5076399;28;20413;-52
2022/01/05 03:12:00;;;;;;;5.73;3.70;;;;;;;;;;5075126;28;20783;-52
2022/01/05 03:14:26;;;;;;;11.63;4.00;;;;;;;;;;5076256;28;20405;-50
2022/01/05 03:16:52;;;;;;;5.30;3.80;;;;;;;;;;5076002;28;20834;-52
2022/01/05 03:19:18;;;;;;;7.13;3.90;;;;;;;;;;5076320;28;20456;-53
2022/01/05 03:21:44;;;;;;;4.00;3.70;;;;;;;;;;5075794;28;20465;-50
2022/01/05 03:24:10;;;;;;;4.20;3.80;;;;;;;;;;5076046;28;20414;-50
2022/01/05 03:26:36;;;;;;;10.10;3.80;;;;;;;;;;5075914;28;20536;-53
2022/01/05 03:29:02;;;;;;;6.60;4.30;;;;;;;;;;5076136;28;20422;-50
2022/01/05 03:31:28;;;;;;;6.93;4.03;;;;;;;;;;5075859;28;20887;-52
2022/01/05 03:33:54;;;;;;;8.37;4.53;;;;;;;;;;5075936;28;20891;-50
2022/01/05 03:36:20;;;;;;;7.30;4.30;;;;;;;;;;5074207;28;20556;-50
2022/01/05 03:38:46;;;;;;;5.00;3.60;;;;;;;;;;5075913;28;20564;-52
2022/01/05 03:41:12;;;;;;;7.20;4.97;;;;;;;;;;5075694;28;20486;-50
2022/01/05 03:43:39;;;;;;;6.57;5.30;;;;;;;;;;5075844;28;20446;-53
2022/01/05 03:46:05;;;;;;;11.97;5.27;;;;;;;;;;5075668;28;20414;-49
2022/01/05 03:48:31;;;;;;;8.43;4.93;;;;;;;;;;5075520;28;20505;-51
2022/01/05 03:50:57;;;;;;;7.73;5.33;;;;;;;;;;5074261;28;20472;-51
2022/01/05 03:53:23;;;;;;;7.37;5.70;;;;;;;;;;5075415;28;20409;-53
2022/01/05 03:55:49;;;;;;;9.67;5.33;;;;;;;;;;5075372;28;20407;-57
2022/01/05 03:58:15;;;;;;;11.43;5.77;;;;;;;;;;5075804;28;20448;-55
2022/01/05 04:00:43;;;;;;;13.07;5.97;;;;;;;;;;5075164;28;20979;-57
2022/01/05 04:03:09;;;;;;;9.13;6.10;;;;;;;;;;5073852;28;20431;-53
2022/01/05 04:05:35;;;;;;;10.60;6.37;;;;;;;;;;5075250;28;20969;-54
2022/01/05 04:08:01;;;;;;;7.57;6.60;;;;;;;;;;5075113;28;20505;-51
2022/01/05 04:10:27;;;;;;;10.83;7.07;;;;;;;;;;5075305;28;20767;-51
2022/01/05 04:12:53;;;;;;;9.37;6.80;;;;;;;;;;5074996;28;20411;-53
2022/01/05 04:15:19;;;;;;;15.00;7.53;;;;;;;;;;5075242;28;20407;-50
2022/01/05 04:17:46;;;;;;;11.53;7.90;;;;;;;;;;5075301;28;20475;-51
2022/01/05 04:20:12;;;;;;;9.13;7.10;;;;;;;;;;5073874;28;20447;-51
2022/01/05 04:22:39;;;;;;;9.03;6.90;;;;;;;;;;5075259;28;20779;-51
2022/01/05 04:25:05;;;;;;;13.13;8.10;;;;;;;;;;5074771;28;20413;-55
2022/01/05 04:27:31;;;;;;;10.70;7.50;;;;;;;;;;5075013;28;20438;-51
2022/01/05 04:29:57;;;;;;;11.60;7.73;;;;;;;;;;5074791;28;20402;-50
2022/01/05 04:32:23;;;;;;;12.83;7.70;;;;;;;;;;5074643;28;20407;-50
2022/01/05 04:34:49;;;;;;;14.03;8.97;;;;;;;;;;5074766;28;20437;-53
2022/01/05 04:37:15;;;;;;;13.87;8.00;;;;;;;;;;5074714;28;20501;-50
2022/01/05 04:39:42;;;;;;;13.03;8.07;;;;;;;;;;5074534;28;20418;-53
2022/01/05 04:42:08;;;;;;;11.87;8.50;;;;;;;;;;5074691;28;20403;-51
2022/01/05 04:44:34;;;;;;;12.87;7.30;;;;;;;;;;5074504;28;20956;-52
2022/01/05 04:47:00;;;;;;;15.27;8.07;;;;;;;;;;5074768;28;20497;-51
2022/01/05 04:49:27;;;;;;;11.17;7.97;;;;;;;;;;5074585;28;20490;-53
2022/01/05 04:51:53;;;;;;;13.17;7.20;;;;;;;;;;5074359;28;20871;-53
2022/01/05 04:54:19;;;;;;;10.23;7.77;;;;;;;;;;5074403;28;20446;-51
2022/01/05 04:56:45;;;;;;;21.63;7.80;;;;;;;;;;5072743;28;20470;-52
2022/01/05 04:59:11;;;;;;;12.27;7.33;;;;;;;;;;5072905;28;20421;-51
2022/01/05 05:01:37;;;;;;;10.57;6.20;;;;;;;;;;5074372;28;20418;-50
2022/01/05 05:04:03;;;;;;;13.33;5.70;;;;;;;;;;5073931;28;20468;-51
2022/01/05 05:06:29;;;;;;;10.17;6.40;;;;;;;;;;5073926;28;20494;-60
2022/01/05 05:08:55;;;;;;;9.50;6.30;;;;;;;;;;5074062;28;20405;-53
2022/01/05 05:11:21;;;;;;;10.70;6.30;;;;;;;;;;5074072;28;20415;-50
2022/01/05 05:13:47;;;;;;;8.30;6.33;;;;;;;;;;5074301;28;20411;-51
2022/01/05 05:16:13;;;;;;;7.20;6.27;;;;;;;;;;5072546;28;20462;-51
2022/01/05 05:18:39;;;;;;;6.70;5.97;;;;;;;;;;5073768;28;20900;-54
2022/01/05 05:21:05;;;;;;;10.30;6.40;;;;;;;;;;5073320;28;20505;-53
2022/01/05 05:23:31;;;;;;;9.33;6.07;;;;;;;;;;5073760;28;20464;-55
2022/01/05 05:25:57;;;;;;;8.93;6.10;;;;;;;;;;5073634;28;20497;-53
2022/01/05 05:28:23;;;;;;;7.53;5.87;;;;;;;;;;5073387;28;20442;-57
2022/01/05 05:30:49;;;;;;;7.63;5.37;;;;;;;;;;5073580;28;20879;-50
2022/01/05 05:33:15;;;;;;;10.27;6.03;;;;;;;;;;5073674;28;20414;-53
2022/01/05 05:35:42;;;;;;;8.40;6.37;;;;;;;;;;5073229;28;20505;-52
2022/01/05 05:38:08;;;;;;;11.63;6.47;;;;;;;;;;5071947;28;20415;-51
2022/01/05 05:40:34;;;;;;;6.10;5.30;;;;;;;;;;5073395;28;20411;-50
2022/01/05 05:43:01;;;;;;;7.43;5.80;;;;;;;;;;5073225;28;20418;-50
2022/01/05 05:45:27;;;;;;;7.93;5.63;;;;;;;;;;5073236;28;20410;-51
2022/01/05 05:47:53;;;;;;;7.20;5.37;;;;;;;;;;5073197;28;20418;-52
2022/01/05 05:50:19;;;;;;;8.37;5.73;;;;;;;;;;5073306;28;20418;-51
2022/01/05 05:52:45;;;;;;;7.90;6.10;;;;;;;;;;5073379;28;20443;-50
2022/01/05 05:55:11;;;;;;;7.10;5.70;;;;;;;;;;5073179;28;20468;-51
2022/01/05 05:57:37;;;;;;;7.50;6.20;;;;;;;;;;5071636;28;20824;-50
2022/01/05 06:00:04;;;;;;;6.20;5.50;;;;;;;;;;5073159;28;20471;-51
2022/01/05 06:02:30;;;;;;;10.30;5.60;;;;;;;;;;5073248;28;20411;-51
2022/01/05 06:04:56;;;;;;;6.67;6.00;;;;;;;;;;5073035;28;20417;-51
2022/01/05 06:07:22;;;;;;;5.03;4.70;;;;;;;;;;5072995;28;20502;-49
2022/01/05 06:09:48;;;;;;;9.23;5.27;;;;;;;;;;5073209;28;20402;-50
2022/01/05 06:12:14;;;;;;;8.07;5.40;;;;;;;;;;5072827;28;20421;-50
2022/01/05 06:14:40;;;;;;;6.10;5.27;;;;;;;;;;5072706;28;20498;-51
2022/01/05 06:17:06;;;;;;;5.00;4.57;;;;;;;;;;5072615;28;20501;-51
2022/01/05 06:19:32;;;;;;;8.40;4.93;;;;;;;;;;5071734;28;20414;-51
2022/01/05 06:21:58;;;;;;;5.93;5.43;;;;;;;;;;5072392;28;20814;-51
2022/01/05 06:24:25;;;;;;;7.07;5.23;;;;;;;;;;5071087;28;20911;-52
2022/01/05 06:26:52;;;;;;;8.73;4.97;;;;;;;;;;5072441;28;20430;-53
2022/01/05 06:29:18;;;;;;;8.33;5.83;;;;;;;;;;5072686;28;20446;-50
2022/01/05 06:31:44;;;;;;;5.80;4.50;;;;;;;;;;5072434;28;20838;-53
2022/01/05 06:34:10;;;;;;;8.97;4.93;;;;;;;;;;5071306;28;20807;-54
2022/01/05 06:36:36;;;;;;;5.43;5.00;;;;;;;;;;5072455;28;20508;-50
2022/01/05 06:39:03;;;;;;;8.43;5.60;;;;;;;;;;5072817;28;20447;-50
2022/01/05 06:41:29;;;;;;;14.43;5.47;;;;;;;;;;5072388;28;20411;-51
2022/01/05 06:43:55;;;;;;;7.00;5.40;;;;;;;;;;5077928;28;20517;-51
2022/01/05 06:46:21;;;;;;;20.03;6.70;;;;;;;;;;5078948;28;20964;-51
2022/01/05 06:48:47;;;;;;;5.90;5.33;;;;;;;;;;5079236;28;20433;-52
2022/01/05 06:51:13;;;;;;;8.07;5.87;;;;;;;;;;5079000;28;20410;-51
2022/01/05 06:53:39;;;;;;;9.43;4.17;;;;;;;;;;5078950;28;20480;-50
2022/01/05 06:56:06;;;;;;;7.80;5.10;;;;;;;;;;5078766;28;20458;-50
2022/01/05 06:58:32;;;;;;;10.10;4.80;;;;;;;;;;5078812;28;20423;-51
2022/01/05 07:00:57;;;;;;;12.73;5.13;;;;;;;;;;5078876;28;20413;-55
2022/01/05 07:03:23;;;;;;;9.67;5.17;;;;;;;;;;5078922;28;20755;-52
2022/01/05 07:05:49;;;;;;;12.53;4.53;;;;;;;;;;5078900;28;20414;-52
2022/01/05 07:08:15;;;;;;;7.80;5.30;;;;;;;;;;5079113;28;20505;-49
2022/01/05 07:10:41;;;;;;;10.60;5.30;;;;;;;;;;5078692;28;20910;-52
2022/01/05 07:13:08;;;;;;;5.33;4.83;;;;;;;;;;5078975;28;20417;-52
2022/01/05 07:15:34;;;;;;;5.83;5.33;;;;;;;;;;5078740;28;20794;-53
2022/01/05 07:18:00;;;;;;;11.40;6.03;;;;;;;;;;5077565;28;20877;-54
2022/01/05 07:20:26;;;;;;;12.27;7.00;;;;;;;;;;5078542;28;20454;-57
2022/01/05 07:22:52;;;;;;;14.00;6.97;;;;;;;;;;5078760;28;20427;-51
2022/01/05 07:25:18;;;;;;;11.60;7.20;;;;;;;;;;5078929;28;20489;-56
2022/01/05 07:27:44;;;;;;;11.90;7.83;;;;;;;;;;5078721;28;20895;-51
2022/01/05 07:30:11;;;;;;;13.87;8.60;;;;;;;;;;5077179;28;20456;-51
2022/01/05 07:32:37;;;;;;;17.10;9.10;;;;;;;;;;5075468;28;20479;-53
2022/01/05 07:35:05;;;;;;;14.33;8.07;;;;;;;;;;5077878;28;20536;-50
2022/01/05 07:37:31;;;;;;;19.53;9.33;;;;;;;;;;5078631;28;20527;-50
2022/01/05 07:39:57;;;;;;;16.70;10.50;;;;;;;;;;5078736;28;20402;-50
2022/01/05 07:42:23;;;;;;;21.70;9.33;;;;;;;;;;5078595;28;20410;-51
2022/01/05 07:44:50;;;;;;;15.93;8.60;;;;;;;;;;5078988;28;20940;-52
2022/01/05 07:47:16;;;;;;;8.93;6.37;;;;;;;;;;5078867;28;20467;-51
2022/01/05 07:49:42;;;;;;;14.50;6.90;;;;;;;;;;5078701;28;20842;-50
2022/01/05 07:52:08;;;;;;;11.20;7.20;;;;;;;;;;5078578;28;20418;-51
2022/01/05 07:54:34;;;;;;;12.53;6.87;;;;;;;;;;5075813;28;20410;-52
2022/01/05 07:57:00;;;;;;;7.50;6.23;;;;;;;;;;5075347;28;20470;-51
2022/01/05 07:59:26;;;;;;;7.17;5.90;;;;;;;;;;5075431;28;20406;-51
2022/01/05 08:01:52;;;;;;;7.77;5.17;;;;;;;;;;5074945;28;20442;-53
2022/01/05 08:04:19;;;;;;;7.70;5.50;;;;;;;;;;5074543;28;20442;-51
2022/01/05 08:06:45;;;;;;;7.80;5.40;;;;;;;;;;5074277;28;20407;-51
2022/01/05 08:09:11;;;;;;;6.50;5.27;;;;;;;;;;5075169;28;20438;-50
2022/01/05 08:11:37;;;;;;;6.40;5.07;;;;;;;;;;5075275;28;20406;-51
2022/01/05 08:14:03;;;;;;;8.70;5.40;;;;;;;;;;5073856;28;20933;-51
2022/01/05 08:16:29;;;;;;;7.10;4.70;;;;;;;;;;5074876;28;20458;-54
2022/01/05 08:18:55;;;;;;;5.87;4.80;;;;;;;;;;5075049;28;20815;-51
2022/01/05 08:21:22;;;;;;;5.27;4.77;;;;;;;;;;5074862;28;20530;-53
2022/01/05 08:23:48;;;;;;;8.17;4.50;;;;;;;;;;5075356;28;20427;-52
2022/01/05 08:26:14;;;;;;;6.53;4.87;;;;;;;;;;5074934;28;20813;-53
2022/01/05 08:28:40;;;;;;;5.60;4.30;;;;;;;;;;5073767;28;20427;-51
2022/01/05 08:31:06;;;;;;;5.93;4.40;;;;;;;;;;5088022;28;20406;-50
2022/01/05 08:33:34;;;;;;;6.17;4.73;;;;;;;;;;5077982;28;20934;-52
2022/01/05 08:36:02;;;;;;;10.77;4.10;;;;;;;;;;5073887;28;20403;-52
2022/01/05 08:38:28;;;;;;;9.33;4.47;;;;;;;;;;5082439;28;20506;-51
2022/01/05 08:40:54;;;;;;;4.43;4.00;;;;;;;;;;5072385;28;20415;-53
2022/01/05 08:43:20;;;;;;;5.60;4.60;;;;;;;;;;5072165;28;20438;-53
2022/01/05 08:45:46;;;;;;;6.07;4.20;;;;;;;;;;5071333;28;20425;-53
2022/01/05 08:48:13;;;;;;;4.57;4.20;;;;;;;;;;5071521;28;20419;-55
2022/01/05 08:50:39;;;;;;;10.93;4.57;;;;;;;;;;5071499;28;20402;-53
2022/01/05 08:53:05;;;;;;;9.97;4.77;;;;;;;;;;5071574;28;20418;-53
2022/01/05 08:55:40;;;;;;;5.33;4.10;;;;;;;;;;5071576;28;20528;-55
2022/01/05 08:58:06;;;;;;;4.97;4.43;;;;;;;;;;5070689;28;20519;-54
2022/01/05 09:00:32;;;;;;;6.83;4.70;;;;;;;;;;5071172;28;20411;-50
2022/01/05 09:02:59;;;;;;;6.60;4.40;;;;;;;;;;5070915;28;20937;-51
2022/01/05 09:05:25;;;;;;;7.50;4.90;;;;;;;;;;5069523;28;20477;-52
2022/01/05 09:07:52;;;;;;;13.97;4.40;;;;;;;;;;5070774;28;20798;-52
2022/01/05 09:10:17;;;;;;;6.83;4.40;;;;;;;;;;5071024;28;20415;-51
2022/01/05 09:12:44;;;;;;;5.90;4.40;;;;;;;;;;5070535;28;20457;-52
2022/01/05 09:15:11;;;;;;;4.50;4.20;;;;;;;;;;5071076;28;20411;-51
2022/01/05 09:17:37;;;;;;;11.63;5.30;;;;;;;;;;5070990;28;20820;-51
2022/01/05 09:20:04;;;;;;;6.83;4.10;;;;;;;;;;5070159;28;20808;-55
2022/01/05 09:22:30;;;;;;;11.30;5.17;;;;;;;;;;5069249;28;20419;-51
2022/01/05 09:24:56;;;;;;;4.87;4.33;;;;;;;;;;5070508;28;20500;-51
2022/01/05 09:27:22;;;;;;;11.00;5.20;;;;;;;;;;5070241;28;20423;-51
2022/01/05 09:29:49;;;;;;;6.10;5.20;;;;;;;;;;5070581;28;20422;-53
2022/01/05 09:32:15;;;;;;;9.80;5.57;;;;;;;;;;5070199;28;20430;-52
2022/01/05 09:34:42;;;;;;;15.40;5.47;;;;;;;;;;5068998;28;20411;-52
2022/01/05 09:37:20;;;;;;;9.73;5.50;;;;;;;;;;5072373;28;20563;-53
2022/01/05 09:42:31;;;;;;;5.97;4.33;;;;;;;;;;5069937;28;20472;-52
2022/01/05 09:44:57;;;;;;;5.87;5.10;;;;;;;;;;5069967;28;20417;-51
2022/01/05 09:47:43;;;;;;;12.37;5.20;;;;;;;;;;5069711;28;20415;-53
2022/01/05 09:50:11;;;;;;;5.07;4.33;;;;;;;;;;5070028;28;20427;-51
2022/01/05 09:52:38;;;;;;;7.40;5.17;;;;;;;;;;5069745;28;20501;-53
2022/01/05 09:55:05;;;;;;;6.40;4.50;;;;;;;;;;5069783;28;20508;-51
2022/01/05 09:57:32;;;;;;;11.60;4.87;;;;;;;;;;5069439;28;20504;-53
2022/01/05 09:59:58;;;;;;;5.80;4.03;;;;;;;;;;5070071;28;20415;-52
2022/01/05 10:02:25;;;;;;;4.27;3.90;;;;;;;;;;5069735;28;20496;-51
2022/01/05 10:04:51;;;;;;;5.63;3.87;;;;;;;;;;5069537;28;20937;-52
2022/01/05 10:07:17;;;;;;;8.40;4.50;;;;;;;;;;5071010;28;20923;-55
2022/01/05 10:09:44;;;;;;;10.63;4.87;;;;;;;;;;5069779;28;20505;-53
2022/01/05 10:12:11;;;;;;;6.17;4.90;;;;;;;;;;5070255;28;20418;-52
2022/01/05 10:14:45;;;;;;;4.83;4.03;;;;;;;;;;5070075;28;20475;-52
2022/01/05 10:17:15;;;;;;;5.70;4.20;;;;;;;;;;5069351;28;20513;-53
2022/01/05 10:19:41;;;;;;;7.30;4.40;;;;;;;;;;5070089;28;20858;-53
2022/01/05 10:22:28;;;;;;;11.00;5.50;;;;;;;;;;5070091;28;20415;-54
2022/01/05 10:24:56;;;;;;;4.07;3.87;;;;;;;;;;5070603;28;20411;-52
2022/01/05 10:27:23;;;;;;;5.83;4.23;;;;;;;;;;5069846;28;20434;-51
2022/01/05 10:29:53;;;;;;;6.37;4.53;;;;;;;;;;5068721;28;20931;-51
2022/01/05 10:32:19;;;;;;;7.30;4.50;;;;;;;;;;5070160;28;20407;-52
2022/01/05 10:34:58;;;;;;;7.23;4.73;;;;;;;;;;5069846;28;20935;-52
2022/01/05 10:37:24;;;;;;;5.13;4.10;;;;;;;;;;5071124;28;20559;-52
2022/01/05 10:40:02;;;;;;;5.70;4.23;;;;;;;;;;5069884;28;20503;-52
2022/01/05 10:42:32;;;;;;;5.30;4.33;;;;;;;;;;5069739;28;20415;-53
2022/01/05 10:44:58;;;;;;;6.07;4.63;;;;;;;;;;5069969;28;20461;-51
2022/01/05 10:47:25;;;;;;;14.97;4.50;;;;;;;;;;5069682;28;20418;-53
2022/01/05 10:49:51;;;;;;;13.33;4.90;;;;;;;;;;5069859;28;20767;-52
2022/01/05 10:52:20;;;;;;;5.70;4.53;;;;;;;;;;5068869;28;20507;-52
2022/01/05 10:54:46;;;;;;;6.63;4.30;;;;;;;;;;5070373;28;20410;-52
2022/01/05 10:57:13;;;;;;;8.13;5.13;;;;;;;;;;5069873;28;20983;-57
2022/01/05 10:59:42;;;;;;;4.80;4.33;;;;;;;;;;5069674;28;20407;-52
2022/01/05 11:02:28;;;;;;;7.70;4.57;;;;;;;;;;5068002;28;20470;-53
2022/01/05 11:05:12;;;;;;;4.60;4.20;;;;;;;;;;5070049;28;20406;-53
2022/01/05 11:07:39;;;;;;;7.60;4.70;;;;;;;;;;5069392;28;20414;-52
2022/01/05 11:10:08;;;;;;;5.33;4.83;;;;;;;;;;5069205;28;20441;-53
2022/01/05 11:12:35;;;;;;;6.17;5.13;;;;;;;;;;5069344;28;20799;-53
2022/01/05 11:15:20;;;;;;;5.47;4.03;;;;;;;;;;5069468;28;20428;-53
2022/01/05 11:18:04;;;;;;;5.13;4.67;;;;;;;;;;5069356;28;20474;-54
2022/01/05 11:20:30;;;;;;;4.63;4.23;;;;;;;;;;5069546;28;20936;-52
2022/01/05 11:22:57;;;;;;;4.90;4.33;;;;;;;;;;5069588;28;20406;-53
2022/01/05 11:25:23;;;;;;;6.83;4.97;;;;;;;;;;5069537;28;20414;-54
2022/01/05 11:27:50;;;;;;;5.23;4.20;;;;;;;;;;5069618;28;20417;-52
2022/01/05 11:30:16;;;;;;;5.63;4.70;;;;;;;;;;5071443;28;20418;-52
2022/01/05 11:32:42;;;;;;;6.10;5.53;;;;;;;;;;5073096;28;20471;-53
2022/01/05 11:35:09;;;;;;;5.00;4.60;;;;;;;;;;5073007;28;20432;-54
2022/01/05 11:37:35;;;;;;;6.90;4.80;;;;;;;;;;5077264;28;20515;-53
2022/01/05 11:40:03;;;;;;;6.50;4.60;;;;;;;;;;5072938;28;20497;-53
2022/01/05 11:42:34;;;;;;;6.13;5.00;;;;;;;;;;5073067;28;20413;-51
2022/01/05 11:45:01;;;;;;;13.40;4.87;;;;;;;;;;5072817;28;20409;-52
2022/01/05 11:47:28;;;;;;;9.03;4.57;;;;;;;;;;5072901;28;20407;-52
2022/01/05 11:49:55;;;;;;;4.60;4.20;;;;;;;;;;5072727;28;20441;-52
2022/01/05 11:52:40;;;;;;;6.90;5.17;;;;;;;;;;5073378;28;20423;-51
2022/01/05 11:55:06;;;;;;;8.50;5.17;;;;;;;;;;5069852;28;20490;-52
2022/01/05 11:57:32;;;;;;;7.63;3.80;;;;;;;;;;5072673;28;20465;-53
2022/01/05 12:00:18;;;;;;;5.17;4.50;;;;;;;;;;5072602;28;20771;-53
2022/01/05 12:02:44;;;;;;;6.73;4.60;;;;;;;;;;5072393;28;20957;-54
2022/01/05 12:05:10;;;;;;;4.90;4.40;;;;;;;;;;5072457;28;20407;-57
2022/01/05 12:07:43;;;;;;;7.77;4.57;;;;;;;;;;5073763;28;20486;-52
2022/01/05 12:10:21;;;;;;;5.13;4.63;;;;;;;;;;5072355;28;20497;-52
2022/01/05 12:12:59;;;;;;;10.90;4.23;;;;;;;;;;5072948;28;20766;-52
2022/01/05 12:15:43;;;;;;;12.10;5.27;;;;;;;;;;5072591;28;20817;-53
2022/01/05 12:18:10;;;;;;;8.50;4.63;;;;;;;;;;5071971;28;20466;-53
2022/01/05 12:20:37;;;;;;;8.83;5.20;;;;;;;;;;5072224;28;20534;-52
2022/01/05 12:23:17;;;;;;;6.67;4.80;;;;;;;;;;5072132;28;20759;-52
2022/01/05 12:26:12;;;;;;;5.43;4.50;;;;;;;;;;5071998;28;20418;-51
2022/01/05 12:28:39;;;;;;;7.27;4.20;;;;;;;;;;5072040;28;20419;-52
2022/01/05 12:31:06;;;;;;;5.20;4.77;;;;;;;;;;5072132;28;20438;-53
2022/01/05 12:33:52;;;;;;;5.10;4.40;;;;;;;;;;5071945;28;20422;-52
2022/01/05 12:36:36;;;;;;;5.90;4.40;;;;;;;;;;5071741;28;20540;-57
2022/01/05 12:39:06;;;;;;;9.23;5.07;;;;;;;;;;5070228;28;21264;-52
2022/01/05 12:41:34;;;;;;;5.10;4.70;;;;;;;;;;5071356;28;20411;-52
2022/01/05 12:44:04;;;;;;;5.90;4.67;;;;;;;;;;5071755;28;20418;-54
2022/01/05 12:46:35;;;;;;;6.23;5.37;;;;;;;;;;5071221;28;20476;-55
2022/01/05 12:49:04;;;;;;;5.20;4.70;;;;;;;;;;5071415;28;20790;-53
2022/01/05 12:51:39;;;;;;;6.90;4.23;;;;;;;;;;5071269;28;20899;-60
2022/01/05 12:54:07;;;;;;;6.23;5.20;;;;;;;;;;5071970;28;20540;-52
2022/01/05 12:56:35;;;;;;;7.20;4.90;;;;;;;;;;5071061;28;20934;-54
2022/01/05 12:59:01;;;;;;;7.13;5.20;;;;;;;;;;5071584;28;20513;-54
2022/01/05 13:01:29;;;;;;;6.90;5.10;;;;;;;;;;5071273;28;20891;-51
2022/01/05 13:03:57;;;;;;;6.00;5.33;;;;;;;;;;5071039;28;20426;-54
2022/01/05 13:06:25;;;;;;;7.03;5.30;;;;;;;;;;5071263;28;20486;-54
2022/01/05 13:08:52;;;;;;;10.00;5.10;;;;;;;;;;5071515;28;20876;-56
2022/01/05 13:11:34;;;;;;;6.00;4.90;;;;;;;;;;5070628;28;20443;-55
2022/01/05 13:14:31;;;;;;;4.43;4.13;;;;;;;;;;5070838;28;20440;-55
2022/01/05 13:16:57;;;;;;;6.97;5.00;;;;;;;;;;5051776;28;20463;-53
2022/01/05 13:19:28;;;;;;;4.77;4.47;;;;;;;;;;5070868;28;20836;-53
2022/01/05 13:21:55;;;;;;;5.80;4.80;;;;;;;;;;5070309;28;20760;-52
2022/01/05 13:24:26;;;;;;;6.90;5.73;;;;;;;;;;5071093;28;20426;-53
2022/01/05 13:27:06;;;;;;;5.70;4.97;;;;;;;;;;5069695;28;20476;-60
2022/01/05 13:29:33;;;;;;;5.97;5.10;;;;;;;;;;5070973;28;20418;-55
2022/01/05 13:32:00;;;;;;;6.00;5.17;;;;;;;;;;5073454;28;20406;-52
2022/01/05 13:34:30;;;;;;;6.10;4.77;;;;;;;;;;5070815;28;20752;-53
2022/01/05 13:36:56;;;;;;;8.80;4.40;;;;;;;;;;5069300;28;20951;-52
2022/01/05 13:39:51;;;;;;;4.97;4.40;;;;;;;;;;5070919;28;20776;-53
2022/01/05 13:42:18;;;;;;;9.20;4.90;;;;;;;;;;5065871;28;20430;-54
2022/01/05 13:44:46;;;;;;;4.57;4.17;;;;;;;;;;5068993;28;20509;-52
2022/01/05 13:47:13;;;;;;;13.33;4.93;;;;;;;;;;5070132;28;20426;-53
2022/01/05 13:49:40;;;;;;;4.90;4.50;;;;;;;;;;5069208;28;20759;-56
2022/01/05 13:52:08;;;;;;;5.03;4.53;;;;;;;;;;5069753;28;20473;-54
2022/01/05 13:54:36;;;;;;;4.20;4.00;;;;;;;;;;5070004;28;20438;-56
2022/01/05 13:57:02;;;;;;;4.07;3.80;;;;;;;;;;5069964;28;20561;-54
2022/01/05 13:59:42;;;;;;;13.80;5.40;;;;;;;;;;5069940;28;20406;-54
2022/01/05 14:02:09;;;;;;;7.23;4.67;;;;;;;;;;5069549;28;20493;-53
2022/01/05 14:04:55;;;;;;;8.50;4.83;;;;;;;;;;5069376;28;20426;-53
2022/01/05 14:07:22;;;;;;;9.17;5.07;;;;;;;;;;5069501;28;20403;-55
2022/01/05 14:10:23;;;;;;;9.40;5.07;;;;;;;;;;5067828;28;20430;-52
2022/01/05 14:12:50;;;;;;;5.07;4.30;;;;;;;;;;5048214;28;20419;-53
2022/01/05 14:15:18;;;;;;;10.40;4.90;;;;;;;;;;5050626;28;20412;-57
2022/01/05 14:18:03;;;;;;;6.53;4.83;;;;;;;;;;5052246;28;20567;-52
2022/01/05 14:20:29;;;;;;;6.03;4.20;;;;;;;;;;5063327;28;20466;-52
2022/01/05 14:23:04;;;;;;;6.20;5.60;;;;;;;;;;5063203;28;20775;-53
2022/01/05 14:25:38;;;;;;;4.80;4.40;;;;;;;;;;5071531;28;20414;-54
2022/01/05 14:28:15;;;;;;;3.90;3.60;;;;;;;;;;5070667;28;20786;-53
2022/01/05 14:30:48;;;;;;;4.73;4.23;;;;;;;;;;5072045;28;20403;-52
2022/01/05 14:33:25;;;;;;;5.43;4.93;;;;;;;;;;5071859;28;20518;-52
2022/01/05 14:35:51;;;;;;;6.03;4.80;;;;;;;;;;5071915;28;20794;-55
2022/01/05 14:38:17;;;;;;;6.37;4.60;;;;;;;;;;5054666;28;20870;-54
2022/01/05 14:40:44;;;;;;;7.53;4.30;;;;;;;;;;5067644;28;20460;-55
2022/01/05 14:43:14;;;;;;;7.50;4.30;;;;;;;;;;5087297;28;20422;-53
2022/01/05 14:45:42;;;;;;;4.40;4.00;;;;;;;;;;5075851;28;20414;-51
2022/01/05 14:48:08;;;;;;;3.70;3.50;;;;;;;;;;5061845;28;20421;-52